Time;durP1;ratioP1;P1;durP2;ratioP2;P2;SDS_P1;SDS_P2;PMS_P1;PMS_P2;Temp;Humidity;BMP_temperature;BMP_pressure;BME280_temperature;BME280_humidity;BME280_pressure;Samples;Min_cycle;Max_cycle;Signal;HPM_P1;HPM_P2
2022/04/29 00:02:56;;;;;;;8.30;5.87;;;14.40;76.50;;;;;;12768317;23;20249;-79
2022/04/29 00:07:59;;;;;;;7.67;5.50;;;14.80;75.90;;;;;;12807453;23;20172;-79
2022/04/29 00:13:04;;;;;;;9.83;5.90;;;14.70;75.20;;;;;;12784031;23;20526;-79
2022/04/29 00:18:06;;;;;;;7.63;5.87;;;14.50;75.20;;;;;;12799200;23;20195;-79
2022/04/29 00:23:10;;;;;;;7.77;5.80;;;14.50;75.60;;;;;;12780379;23;20226;-79
2022/04/29 00:28:13;;;;;;;12.33;6.53;;;14.50;75.40;;;;;;12781463;23;20645;-79
2022/04/29 00:33:15;;;;;;;10.23;6.57;;;14.50;75.60;;;;;;12780637;23;20190;-78
2022/04/29 00:38:18;;;;;;;10.80;7.10;;;14.60;74.80;;;;;;12755747;23;20262;-80
2022/04/29 00:43:21;;;;;;;10.07;6.50;;;14.30;74.80;;;;;;12754544;23;20195;-79
2022/04/29 00:48:23;;;;;;;8.53;6.10;;;14.00;75.20;;;;;;12782429;23;20168;-79
2022/04/29 00:53:28;;;;;;;7.83;5.73;;;14.00;76.10;;;;;;12698060;23;20289;-80
2022/04/29 00:58:43;;;;;;;9.47;6.70;;;14.10;77.00;;;;;;12719689;23;20256;-79
2022/04/29 01:03:46;;;;;;;7.83;6.07;;;13.90;76.10;;;;;;12694186;23;20200;-79
2022/04/29 01:08:48;;;;;;;9.13;5.63;;;13.90;77.00;;;;;;12693340;23;20176;-79
2022/04/29 01:13:52;;;;;;;10.27;6.20;;;14.10;76.60;;;;;;12720808;23;20204;-79
2022/04/29 01:18:55;;;;;;;8.93;5.83;;;14.20;76.30;;;;;;12692044;23;20183;-79
2022/04/29 01:23:57;;;;;;;7.63;6.10;;;13.90;75.80;;;;;;12717418;23;20511;-79
2022/04/29 01:29:02;;;;;;;8.50;6.40;;;13.80;76.30;;;;;;12694594;23;20231;-79
2022/04/29 01:34:05;;;;;;;6.53;5.23;;;13.40;77.50;;;;;;12692115;23;20239;-79
2022/04/29 01:39:08;;;;;;;9.00;5.50;;;13.30;79.40;;;;;;12690817;23;20180;-79
2022/04/29 01:44:10;;;;;;;7.30;5.27;;;14.00;77.50;;;;;;12667074;23;20714;-79
2022/04/29 01:49:15;;;;;;;8.73;5.30;;;14.30;76.20;;;;;;12722126;23;20588;-79
2022/04/29 01:54:24;;;;;;;6.80;5.00;;;14.00;76.90;;;;;;12752950;23;20183;-80
2022/04/29 01:59:29;;;;;;;6.83;5.13;;;13.90;77.30;;;;;;12752844;23;20629;-79
2022/04/29 02:04:44;;;;;;;6.50;5.33;;;14.50;75.40;;;;;;12753673;23;20540;-79
2022/04/29 02:09:49;;;;;;;8.57;5.90;;;14.70;74.70;;;;;;12777415;23;20626;-79
2022/04/29 02:14:51;;;;;;;6.73;5.20;;;14.70;74.30;;;;;;12752881;23;20238;-79
2022/04/29 02:19:57;;;;;;;5.23;4.50;;;14.80;74.30;;;;;;12753086;23;20183;-79
2022/04/29 02:24:59;;;;;;;8.97;5.73;;;14.80;73.90;;;;;;12752939;23;20200;-79
2022/04/29 02:30:04;;;;;;;6.03;4.63;;;14.80;73.20;;;;;;12779261;23;20174;-79
2022/04/29 02:35:07;;;;;;;6.13;4.67;;;14.80;74.00;;;;;;12752300;23;20179;-79
2022/04/29 02:40:10;;;;;;;6.33;5.03;;;14.70;73.80;;;;;;12752663;23;20662;-80
2022/04/29 02:45:13;;;;;;;9.80;6.37;;;14.80;74.00;;;;;;12752530;23;20234;-79
2022/04/29 02:50:22;;;;;;;6.27;5.43;;;14.80;72.80;;;;;;12729803;23;20199;-79
2022/04/29 02:55:29;;;;;;;6.17;4.90;;;14.30;73.80;;;;;;12797961;23;20701;-79
2022/04/29 03:00:47;;;;;;;12.40;6.13;;;14.00;75.80;;;;;;12752711;23;20179;-79
2022/04/29 03:05:49;;;;;;;8.03;4.83;;;14.30;73.90;;;;;;12777151;23;20203;-79
2022/04/29 03:10:51;;;;;;;5.93;4.57;;;14.30;75.20;;;;;;12752131;23;20869;-79
2022/04/29 03:15:54;;;;;;;7.73;5.53;;;14.00;75.00;;;;;;12752525;23;20179;-79
2022/04/29 03:20:56;;;;;;;6.80;4.53;;;13.90;75.70;;;;;;12777823;23;20174;-79
2022/04/29 03:26:00;;;;;;;8.03;5.87;;;14.10;75.90;;;;;;12752244;23;20590;-79
2022/04/29 03:31:04;;;;;;;5.90;4.73;;;14.40;74.40;;;;;;12751579;23;20180;-79
2022/04/29 03:36:26;;;;;;;9.10;5.83;;;14.30;74.90;;;;;;12779626;23;20179;-79
2022/04/29 03:41:31;;;;;;;5.70;4.73;;;13.90;75.00;;;;;;12751482;23;20246;-79
2022/04/29 03:46:37;;;;;;;6.00;5.10;;;13.90;75.90;;;;;;12751805;23;20200;-80
2022/04/29 03:51:47;;;;;;;6.47;5.00;;;14.20;75.00;;;;;;12751514;23;20686;-79
2022/04/29 03:56:51;;;;;;;4.80;4.23;;;14.30;75.10;;;;;;12752737;23;20528;-79
2022/04/29 04:01:53;;;;;;;6.47;4.87;;;14.50;74.60;;;;;;12779329;23;20167;-79
2022/04/29 04:07:01;;;;;;;6.37;4.53;;;14.90;73.00;;;;;;12780431;23;20195;-79
2022/04/29 04:12:50;;;;;;;6.37;4.67;;;15.30;71.80;;;;;;12553690;23;20579;-80
2022/04/29 04:17:53;;;;;;;6.43;4.80;;;15.60;70.80;;;;;;12552549;23;20179;-79
2022/04/29 04:22:56;;;;;;;6.50;4.90;;;15.70;69.90;;;;;;12531838;23;20178;-79
2022/04/29 04:27:59;;;;;;;5.27;4.40;;;15.80;70.00;;;;;;12533285;23;20266;-79
2022/04/29 04:33:23;;;;;;;6.43;4.77;;;15.70;70.10;;;;;;12509110;23;20176;-79
2022/04/29 04:38:26;;;;;;;8.33;5.70;;;15.70;70.10;;;;;;12510488;23;20177;-79
2022/04/29 04:43:39;;;;;;;6.77;5.07;;;15.80;69.80;;;;;;12568426;23;20666;-79
2022/04/29 04:48:44;;;;;;;6.17;5.23;;;16.10;69.10;;;;;;12755799;23;20176;-79
2022/04/29 04:54:15;;;;;;;7.30;5.07;;;16.10;68.70;;;;;;12768661;23;20179;-79
2022/04/29 04:59:18;;;;;;;7.30;5.33;;;16.10;68.70;;;;;;12799591;23;20198;-79
2022/04/29 05:04:25;;;;;;;6.83;4.87;;;16.10;68.70;;;;;;12768132;23;20205;-79
2022/04/29 05:09:46;;;;;;;7.10;5.63;;;16.10;68.70;;;;;;12814778;23;20175;-79
2022/04/29 05:14:48;;;;;;;7.60;4.63;;;15.70;69.40;;;;;;12794748;23;20534;-79
2022/04/29 05:19:51;;;;;;;17.87;8.77;;;15.80;69.60;;;;;;12767424;23;20203;-79
2022/04/29 05:24:59;;;;;;;7.20;5.40;;;15.90;68.60;;;;;;12766211;23;20627;-79
2022/04/29 05:30:20;;;;;;;19.10;7.83;;;16.00;69.00;;;;;;12791634;23;20167;-78
2022/04/29 05:35:42;;;;;;;9.63;7.07;;;14.50;63.90;;;;;;12811793;23;20175;-78
2022/04/29 05:46:35;;;;;;;17.50;8.17;;;12.90;79.40;;;;;;12587465;23;20200;-77
2022/04/29 05:51:39;;;;;;;13.70;6.87;;;12.50;67.20;;;;;;12597860;23;20204;-78
2022/04/29 05:56:41;;;;;;;10.30;7.27;;;12.10;75.60;;;;;;12644779;23;20180;-79
2022/04/29 06:01:48;;;;;;;11.10;7.60;;;12.80;73.00;;;;;;12648515;23;20567;-78
2022/04/29 06:06:52;;;;;;;17.43;7.30;;;13.20;69.20;;;;;;12644325;23;20216;-78
2022/04/29 06:11:55;;;;;;;12.33;7.30;;;12.40;72.20;;;;;;12643394;23;20236;-78
2022/04/29 06:17:06;;;;;;;11.27;6.30;;;11.60;73.00;;;;;;12728885;23;20183;-78
2022/04/29 06:22:27;;;;;;;8.33;6.17;;;12.20;76.90;;;;;;12822029;23;20179;-78
2022/04/29 06:27:30;;;;;;;10.83;5.77;;;13.60;68.20;;;;;;12771900;23;20251;-78
2022/04/29 06:32:33;;;;;;;12.93;7.27;;;13.90;67.10;;;;;;12772460;23;20226;-78
2022/04/29 06:37:50;;;;;;;5.33;4.33;;;12.90;65.80;;;;;;12773549;23;20179;-78
2022/04/29 06:43:25;;;;;;;6.37;3.60;;;13.00;73.60;;;;;;12774877;23;20246;-78
2022/04/29 06:48:48;;;;;;;15.37;7.10;;;12.60;73.90;;;;;;12818403;23;20167;-79
2022/04/29 06:54:22;;;;;;;14.77;6.60;;;12.30;70.50;;;;;;12699222;23;20625;-78
2022/04/29 06:59:34;;;;;;;13.27;7.10;;;12.30;68.90;;;;;;12668596;23;20571;-79
2022/04/29 07:04:38;;;;;;;12.17;5.83;;;12.60;68.70;;;;;;12664706;23;20246;-79
2022/04/29 07:09:43;;;;;;;9.00;5.73;;;12.50;70.00;;;;;;12663955;23;20198;-79
2022/04/29 07:15:18;;;;;;;7.67;4.37;;;12.30;66.30;;;;;;12663911;23;20181;-78
2022/04/29 07:20:22;;;;;;;7.67;4.40;;;14.30;67.20;;;;;;12663506;23;20205;-79
2022/04/29 07:25:24;;;;;;;7.60;5.27;;;16.00;70.40;;;;;;12641314;23;20284;-79
2022/04/29 07:30:27;;;;;;;8.50;5.47;;;14.90;68.30;;;;;;12747235;23;20173;-79
2022/04/29 07:46:29;;;;;;;9.97;5.70;;;14.20;65.40;;;;;;12779417;23;20510;-94
2022/04/29 07:51:50;;;;;;;19.00;5.17;;;13.10;68.00;;;;;;12787847;23;20534;-80
2022/04/29 07:56:53;;;;;;;10.57;4.80;;;14.40;65.70;;;;;;12771181;23;20188;-80
2022/04/29 08:01:56;;;;;;;7.50;4.17;;;15.20;62.40;;;;;;12770683;23;20177;-80
2022/04/29 08:06:59;;;;;;;10.57;3.40;;;15.10;60.90;;;;;;12770355;23;20245;-80
2022/04/29 08:12:10;;;;;;;6.17;3.87;;;17.10;60.10;;;;;;12810029;23;20237;-80
2022/04/29 08:17:12;;;;;;;3.43;1.87;;;15.60;59.50;;;;;;12816946;23;20594;-80
2022/04/29 08:22:21;;;;;;;7.03;2.20;;;17.70;59.60;;;;;;12768317;23;20236;-80
2022/04/29 08:27:24;;;;;;;3.20;2.23;;;18.10;58.30;;;;;;12767490;23;20245;-80
2022/04/29 08:32:39;;;;;;;3.47;2.13;;;18.40;58.20;;;;;;12767174;23;20615;-80
2022/04/29 08:37:47;;;;;;;5.03;2.23;;;15.70;60.30;;;;;;12766029;23;20854;-80
2022/04/29 08:42:50;;;;;;;5.37;2.50;;;18.10;56.90;;;;;;12765361;23;20187;-80
2022/04/29 08:47:54;;;;;;;4.97;1.73;;;18.30;49.80;;;;;;12793261;23;20512;-80
2022/04/29 08:52:57;;;;;;;2.70;2.10;;;17.20;61.10;;;;;;12767556;23;20202;-81
2022/04/29 09:03:22;;;;;;;3.03;1.87;;;18.10;58.60;;;;;;12766985;23;20497;-80
2022/04/29 09:08:25;;;;;;;2.30;1.70;;;18.00;58.60;;;;;;12789744;23;20249;-80
2022/04/29 09:13:35;;;;;;;4.40;1.80;;;18.70;58.30;;;;;;12765720;23;20175;-80
2022/04/29 09:18:49;;;;;;;2.90;1.40;;;18.90;55.30;;;;;;12765242;23;20569;-81
2022/04/29 09:23:56;;;;;;;5.10;1.77;;;19.20;57.00;;;;;;12766110;23;20180;-82
2022/04/29 09:29:15;;;;;;;5.37;2.50;;;18.90;57.60;;;;;;12813802;23;20522;-82
2022/04/29 09:34:50;;;;;;;2.20;1.67;;;16.60;56.80;;;;;;12765289;23;20176;-82
2022/04/29 09:40:02;;;;;;;7.37;3.00;;;17.00;61.10;;;;;;12809475;23;20214;-82
2022/04/29 09:45:18;;;;;;;9.13;3.53;;;16.30;56.20;;;;;;12766402;23;20184;-82
2022/04/29 09:50:21;;;;;;;4.83;2.70;;;14.60;53.50;;;;;;12764524;23;20268;-82
2022/04/29 09:55:23;;;;;;;5.00;3.03;;;14.20;54.80;;;;;;12765056;23;20238;-81
2022/04/29 10:00:26;;;;;;;3.93;2.60;;;14.30;56.00;;;;;;12766095;23;20515;-81
2022/04/29 10:05:31;;;;;;;7.40;2.47;;;14.40;56.10;;;;;;12764341;23;20199;-82
2022/04/29 10:10:42;;;;;;;10.40;2.90;;;14.50;53.30;;;;;;12764025;23;20287;-81
2022/04/29 10:15:46;;;;;;;4.10;2.30;;;14.10;51.20;;;;;;12764397;23;20640;-82
2022/04/29 10:21:16;;;;;;;5.17;2.60;;;14.20;54.80;;;;;;12812582;23;20176;-82
2022/04/29 10:26:22;;;;;;;12.77;3.13;;;14.60;52.90;;;;;;12764606;23;20199;-82
2022/04/29 10:31:27;;;;;;;12.17;3.07;;;14.80;53.20;;;;;;12792012;23;20217;-82
2022/04/29 10:36:29;;;;;;;8.07;2.80;;;14.60;55.60;;;;;;12790745;23;20195;-82
2022/04/29 10:41:32;;;;;;;6.17;2.23;;;14.60;53.20;;;;;;12790657;23;20230;-82
2022/04/29 10:46:36;;;;;;;5.80;2.90;;;14.70;53.10;;;;;;12789762;23;20242;-82
2022/04/29 10:52:00;;;;;;;1.70;1.60;;;15.50;65.80;;;;;;12812423;23;20194;-82
2022/04/29 10:57:14;;;;;;;5.37;1.97;;;16.10;63.10;;;;;;12791452;23;20573;-81
2022/04/29 11:02:27;;;;;;;2.50;1.73;;;17.20;54.20;;;;;;12783492;23;20171;-82
2022/04/29 11:07:42;;;;;;;3.33;2.37;;;15.70;52.70;;;;;;12739871;23;20226;-82
2022/04/29 11:13:03;;;;;;;6.27;1.77;;;15.80;53.70;;;;;;12804956;23;20164;-82
2022/04/29 11:18:25;;;;;;;6.00;1.60;;;15.80;55.30;;;;;;12813558;23;20175;-83
2022/04/29 11:28:54;;;;;;;4.03;2.03;;;15.50;49.90;;;;;;12803320;23;20191;-82
2022/04/29 11:34:10;;;;;;;6.53;1.80;;;15.70;49.70;;;;;;12816953;23;20702;-83
2022/04/29 11:39:17;;;;;;;5.13;1.87;;;16.60;59.90;;;;;;12768224;23;20499;-82
2022/04/29 11:44:49;;;;;;;3.60;2.10;;;17.90;57.60;;;;;;12743196;23;20523;-82
2022/04/29 11:49:53;;;;;;;4.80;1.60;;;17.90;58.80;;;;;;12545817;23;20230;-90
2022/04/29 11:54:58;;;;;;;3.37;1.53;;;17.70;49.60;;;;;;12534729;23;20539;-96
2022/04/29 12:00:24;;;;;;;3.63;1.67;;;17.50;49.60;;;;;;12534661;23;20182;-96
2022/04/29 12:05:28;;;;;;;3.37;1.50;;;16.70;48.30;;;;;;12539268;23;20194;-95
2022/04/29 12:10:32;;;;;;;2.57;1.07;;;16.90;50.00;;;;;;12555312;23;20488;-94
2022/04/29 12:15:37;;;;;;;3.00;1.30;;;17.60;50.80;;;;;;12532556;23;20185;-95
2022/04/29 12:20:39;;;;;;;2.23;1.03;;;17.60;50.40;;;;;;12540056;23;20182;-91
2022/04/29 12:25:44;;;;;;;5.23;1.37;;;17.50;47.90;;;;;;12688912;23;20195;-91
2022/04/29 12:43:07;;;;;;;2.43;1.00;;;17.00;50.70;;;;;;12725050;23;20227;-96
2022/04/29 12:48:14;;;;;;;4.33;1.87;;;17.10;45.50;;;;;;12719804;23;20177;-96
2022/04/29 12:53:30;;;;;;;3.37;1.30;;;16.90;46.90;;;;;;12674782;23;20203;-87
2022/04/29 12:58:34;;;;;;;1.90;1.27;;;17.60;46.50;;;;;;12672190;23;20528;-83
2022/04/29 13:03:37;;;;;;;4.67;1.20;;;18.30;45.90;;;;;;12670762;23;20173;-81
2022/04/29 13:08:56;;;;;;;3.97;0.90;;;17.10;43.80;;;;;;12668371;23;20279;-80
2022/04/29 13:13:59;;;;;;;6.97;0.80;;;16.70;45.30;;;;;;12670138;23;20521;-80
2022/04/29 13:19:02;;;;;;;2.87;0.93;;;16.70;44.00;;;;;;12668032;23;20226;-80
2022/04/29 13:24:05;;;;;;;7.97;1.60;;;16.90;44.30;;;;;;12668398;23;20184;-84
2022/04/29 13:29:15;;;;;;;1.80;0.83;;;17.00;56.80;;;;;;12667942;23;20229;-79
2022/04/29 13:34:18;;;;;;;8.87;0.93;;;16.40;44.30;;;;;;12668599;23;20220;-79
2022/04/29 13:39:20;;;;;;;1.53;0.80;;;17.00;56.60;;;;;;12669505;23;20248;-78
2022/04/29 13:44:43;;;;;;;3.93;1.00;;;16.50;45.00;;;;;;12667662;23;20179;-79
2022/04/29 13:49:46;;;;;;;1.27;0.90;;;16.70;46.30;;;;;;12668247;23;20201;-79
2022/04/29 13:54:49;;;;;;;3.93;1.10;;;17.10;48.30;;;;;;12669688;23;20243;-79
2022/04/29 13:59:51;;;;;;;2.07;0.73;;;17.00;44.70;;;;;;12643667;23;20659;-79
2022/04/29 14:04:56;;;;;;;5.00;0.70;;;17.00;47.00;;;;;;12684068;23;20169;-79
2022/04/29 14:09:58;;;;;;;2.80;1.00;;;17.00;44.30;;;;;;12667291;23;20257;-79
2022/04/29 14:15:02;;;;;;;4.80;0.77;;;17.70;47.60;;;;;;12668522;23;20181;-85
